Amana, Iowa
Current Conditions -  °F | °C
As of 5:52 PM on Friday 21 Nov 2014 (Local Time) from KCID Reporting Station
Overcast Overcast  
Wind Chill: -5°   Ceiling: 2000
Heat Index:   Visibility: 10mi
Dew Point: -8°   Wind: 14mph
Humidity: 52%   Direction: 150°SSE
Pressure: 30.16"   Gusts: NA
Location:  41.8°N, 91.87°W
Report Text: KCID 212352Z 15012KT 10SM OVC020 01/M08 A3016 RMK AO2 SLP228 T00061083 10011 21028 58012
Loading
Personal Weather Stations






























Interactive Weather Map New forecast layout! Learn more

10-Day Weather Forecast

Advertisements
Track Severe Weather on mobile